sensor_id;sensor_type;location;lat;lon;timestamp;temperature;humidity
61000;SHT31;46879;45.658;11.814;2023-10-08T00:03:23;23.53;63.62
61000;SHT31;46879;45.658;11.814;2023-10-08T00:08:27;23.53;63.38
61000;SHT31;46879;45.658;11.814;2023-10-08T00:13:28;23.55;63.45
61000;SHT31;46879;45.658;11.814;2023-10-08T00:18:30;23.56;63.54
61000;SHT31;46879;45.658;11.814;2023-10-08T00:23:30;23.53;63.91
61000;SHT31;46879;45.658;11.814;2023-10-08T00:28:31;23.55;63.84
61000;SHT31;46879;45.658;11.814;2023-10-08T00:33:32;23.55;64.00
61000;SHT31;46879;45.658;11.814;2023-10-08T00:38:32;23.53;64.32
61000;SHT31;46879;45.658;11.814;2023-10-08T00:43:34;23.55;64.23
61000;SHT31;46879;45.658;11.814;2023-10-08T00:48:35;23.55;64.39
61000;SHT31;46879;45.658;11.814;2023-10-08T00:53:36;23.53;64.18
61000;SHT31;46879;45.658;11.814;2023-10-08T00:58:41;23.56;63.93
61000;SHT31;46879;45.658;11.814;2023-10-08T01:03:46;23.55;63.80
61000;SHT31;46879;45.658;11.814;2023-10-08T01:08:47;23.53;63.83
61000;SHT31;46879;45.658;11.814;2023-10-08T01:13:52;23.55;63.78
61000;SHT31;46879;45.658;11.814;2023-10-08T01:18:55;23.55;63.67
61000;SHT31;46879;45.658;11.814;2023-10-08T01:23:56;23.55;63.64
61000;SHT31;46879;45.658;11.814;2023-10-08T01:28:56;23.53;63.51
61000;SHT31;46879;45.658;11.814;2023-10-08T01:33:57;23.52;63.38
61000;SHT31;46879;45.658;11.814;2023-10-08T01:38:57;23.55;63.05
61000;SHT31;46879;45.658;11.814;2023-10-08T01:43:58;23.53;62.95
61000;SHT31;46879;45.658;11.814;2023-10-08T01:48:59;23.53;62.89
61000;SHT31;46879;45.658;11.814;2023-10-08T01:54:05;23.52;62.93
61000;SHT31;46879;45.658;11.814;2023-10-08T01:59:14;23.53;62.90
61000;SHT31;46879;45.658;11.814;2023-10-08T02:04:16;23.53;63.09
61000;SHT31;46879;45.658;11.814;2023-10-08T02:09:17;23.53;62.74
61000;SHT31;46879;45.658;11.814;2023-10-08T02:14:20;23.53;62.62
61000;SHT31;46879;45.658;11.814;2023-10-08T02:19:23;23.50;62.54
61000;SHT31;46879;45.658;11.814;2023-10-08T02:24:30;23.52;62.52
61000;SHT31;46879;45.658;11.814;2023-10-08T02:29:31;23.52;62.51
61000;SHT31;46879;45.658;11.814;2023-10-08T02:34:31;23.50;62.30
61000;SHT31;46879;45.658;11.814;2023-10-08T02:39:32;23.52;62.30
61000;SHT31;46879;45.658;11.814;2023-10-08T02:44:33;23.50;62.44
61000;SHT31;46879;45.658;11.814;2023-10-08T02:49:33;23.49;62.44
61000;SHT31;46879;45.658;11.814;2023-10-08T02:54:35;23.50;62.56
61000;SHT31;46879;45.658;11.814;2023-10-08T02:59:38;23.49;62.58
61000;SHT31;46879;45.658;11.814;2023-10-08T03:04:43;23.50;62.55
61000;SHT31;46879;45.658;11.814;2023-10-08T03:09:45;23.49;62.46
61000;SHT31;46879;45.658;11.814;2023-10-08T03:14:46;23.46;62.51
61000;SHT31;46879;45.658;11.814;2023-10-08T03:20:02;23.45;62.36
61000;SHT31;46879;45.658;11.814;2023-10-08T03:25:23;23.47;62.38
61000;SHT31;46879;45.658;11.814;2023-10-08T03:30:25;23.47;62.25
61000;SHT31;46879;45.658;11.814;2023-10-08T03:35:27;23.47;62.16
61000;SHT31;46879;45.658;11.814;2023-10-08T03:40:37;23.47;62.07
61000;SHT31;46879;45.658;11.814;2023-10-08T03:45:43;23.46;62.11
61000;SHT31;46879;45.658;11.814;2023-10-08T03:51:03;23.46;62.05
61000;SHT31;46879;45.658;11.814;2023-10-08T03:56:07;23.42;62.26
61000;SHT31;46879;45.658;11.814;2023-10-08T04:01:07;23.46;62.04
61000;SHT31;46879;45.658;11.814;2023-10-08T04:06:16;23.45;61.97
61000;SHT31;46879;45.658;11.814;2023-10-08T04:11:16;23.43;61.93
61000;SHT31;46879;45.658;11.814;2023-10-08T04:16:32;23.45;61.86
61000;SHT31;46879;45.658;11.814;2023-10-08T04:21:38;23.43;61.81
61000;SHT31;46879;45.658;11.814;2023-10-08T04:26:43;23.43;61.71
61000;SHT31;46879;45.658;11.814;2023-10-08T04:31:44;23.42;61.68
61000;SHT31;46879;45.658;11.814;2023-10-08T04:36:46;23.43;61.74
61000;SHT31;46879;45.658;11.814;2023-10-08T04:41:48;23.43;61.62
61000;SHT31;46879;45.658;11.814;2023-10-08T04:46:54;23.42;61.48
61000;SHT31;46879;45.658;11.814;2023-10-08T04:51:57;23.42;61.41
61000;SHT31;46879;45.658;11.814;2023-10-08T04:56:59;23.41;61.42
61000;SHT31;46879;45.658;11.814;2023-10-08T05:02:03;23.42;61.40
61000;SHT31;46879;45.658;11.814;2023-10-08T05:07:19;23.39;61.40
61000;SHT31;46879;45.658;11.814;2023-10-08T05:12:38;23.41;61.34
61000;SHT31;46879;45.658;11.814;2023-10-08T05:17:48;23.38;61.25
61000;SHT31;46879;45.658;11.814;2023-10-08T05:22:51;23.38;61.20
61000;SHT31;46879;45.658;11.814;2023-10-08T05:28:17;23.35;61.18
61000;SHT31;46879;45.658;11.814;2023-10-08T05:33:24;23.36;61.24
61000;SHT31;46879;45.658;11.814;2023-10-08T05:38:25;23.36;61.18
61000;SHT31;46879;45.658;11.814;2023-10-08T05:43:37;23.35;61.16
61000;SHT31;46879;45.658;11.814;2023-10-08T05:49:00;23.36;61.23
61000;SHT31;46879;45.658;11.814;2023-10-08T05:54:06;23.35;61.27
61000;SHT31;46879;45.658;11.814;2023-10-08T05:59:11;23.35;61.19
61000;SHT31;46879;45.658;11.814;2023-10-08T06:04:18;23.35;61.22
61000;SHT31;46879;45.658;11.814;2023-10-08T06:09:41;23.36;61.16
61000;SHT31;46879;45.658;11.814;2023-10-08T06:14:51;23.35;61.19
61000;SHT31;46879;45.658;11.814;2023-10-08T06:20:11;23.33;61.18
61000;SHT31;46879;45.658;11.814;2023-10-08T06:25:16;23.36;61.14
61000;SHT31;46879;45.658;11.814;2023-10-08T06:30:18;23.32;61.17
61000;SHT31;46879;45.658;11.814;2023-10-08T06:35:19;23.33;61.47
61000;SHT31;46879;45.658;11.814;2023-10-08T06:40:26;23.33;61.31
61000;SHT31;46879;45.658;11.814;2023-10-08T06:45:43;23.36;61.26
61000;SHT31;46879;45.658;11.814;2023-10-08T06:50:45;23.33;61.46
61000;SHT31;46879;45.658;11.814;2023-10-08T06:55:45;23.35;61.71
61000;SHT31;46879;45.658;11.814;2023-10-08T07:00:48;23.33;61.66
61000;SHT31;46879;45.658;11.814;2023-10-08T07:05:50;23.33;61.70
61000;SHT31;46879;45.658;11.814;2023-10-08T07:11:03;23.36;61.93
61000;SHT31;46879;45.658;11.814;2023-10-08T07:16:11;23.33;61.71
61000;SHT31;46879;45.658;11.814;2023-10-08T07:21:12;23.38;61.38
61000;SHT31;46879;45.658;11.814;2023-10-08T07:26:13;23.35;61.60
61000;SHT31;46879;45.658;11.814;2023-10-08T07:31:23;23.35;60.99
61000;SHT31;46879;45.658;11.814;2023-10-08T07:36:27;23.29;60.67
61000;SHT31;46879;45.658;11.814;2023-10-08T07:41:29;23.25;60.53
61000;SHT31;46879;45.658;11.814;2023-10-08T07:46:30;23.26;60.43
61000;SHT31;46879;45.658;11.814;2023-10-08T07:51:31;23.29;60.42
61000;SHT31;46879;45.658;11.814;2023-10-08T07:56:31;23.28;60.38
61000;SHT31;46879;45.658;11.814;2023-10-08T08:01:32;23.30;60.33
61000;SHT31;46879;45.658;11.814;2023-10-08T08:06:34;23.26;60.26
61000;SHT31;46879;45.658;11.814;2023-10-08T08:11:35;23.26;60.26
61000;SHT31;46879;45.658;11.814;2023-10-08T08:16:37;23.26;60.27
61000;SHT31;46879;45.658;11.814;2023-10-08T08:21:38;23.25;60.29
61000;SHT31;46879;45.658;11.814;2023-10-08T08:26:45;23.23;60.30
61000;SHT31;46879;45.658;11.814;2023-10-08T08:32:01;23.25;60.42
61000;SHT31;46879;45.658;11.814;2023-10-08T08:37:04;23.25;60.40
61000;SHT31;46879;45.658;11.814;2023-10-08T08:42:05;23.18;60.51
61000;SHT31;46879;45.658;11.814;2023-10-08T08:47:06;23.23;60.48
61000;SHT31;46879;45.658;11.814;2023-10-08T08:52:08;23.23;60.54
61000;SHT31;46879;45.658;11.814;2023-10-08T08:57:10;23.23;60.66
61000;SHT31;46879;45.658;11.814;2023-10-08T09:02:16;23.19;60.29
61000;SHT31;46879;45.658;11.814;2023-10-08T09:07:21;23.19;60.22
61000;SHT31;46879;45.658;11.814;2023-10-08T09:12:22;23.21;60.39
61000;SHT31;46879;45.658;11.814;2023-10-08T09:17:25;23.16;59.96
61000;SHT31;46879;45.658;11.814;2023-10-08T09:22:26;23.19;59.95
61000;SHT31;46879;45.658;11.814;2023-10-08T09:27:27;23.19;60.10
61000;SHT31;46879;45.658;11.814;2023-10-08T09:32:30;23.19;59.94
61000;SHT31;46879;45.658;11.814;2023-10-08T09:37:30;23.23;60.03
61000;SHT31;46879;45.658;11.814;2023-10-08T09:42:31;23.21;60.18
61000;SHT31;46879;45.658;11.814;2023-10-08T09:47:42;23.19;60.03
61000;SHT31;46879;45.658;11.814;2023-10-08T09:53:08;23.18;60.23
61000;SHT31;46879;45.658;11.814;2023-10-08T09:58:12;23.22;60.33
61000;SHT31;46879;45.658;11.814;2023-10-08T10:03:15;23.23;60.28
61000;SHT31;46879;45.658;11.814;2023-10-08T10:08:17;23.26;60.29
61000;SHT31;46879;45.658;11.814;2023-10-08T10:13:18;23.26;60.33
61000;SHT31;46879;45.658;11.814;2023-10-08T10:23:45;23.29;60.19
61000;SHT31;46879;45.658;11.814;2023-10-08T10:34:24;23.29;60.46
61000;SHT31;46879;45.658;11.814;2023-10-08T10:39:27;23.30;60.48
61000;SHT31;46879;45.658;11.814;2023-10-08T10:44:31;23.32;60.71
61000;SHT31;46879;45.658;11.814;2023-10-08T10:49:32;23.33;60.83
61000;SHT31;46879;45.658;11.814;2023-10-08T10:54:37;23.30;61.03
61000;SHT31;46879;45.658;11.814;2023-10-08T10:59:38;23.30;61.07
61000;SHT31;46879;45.658;11.814;2023-10-08T11:04:38;23.29;61.16
61000;SHT31;46879;45.658;11.814;2023-10-08T11:09:48;23.30;61.15
61000;SHT31;46879;45.658;11.814;2023-10-08T11:14:49;23.30;61.16
61000;SHT31;46879;45.658;11.814;2023-10-08T11:19:52;23.30;61.15
61000;SHT31;46879;45.658;11.814;2023-10-08T11:24:54;23.32;61.14
61000;SHT31;46879;45.658;11.814;2023-10-08T11:29:56;23.30;61.13
61000;SHT31;46879;45.658;11.814;2023-10-08T11:34:59;23.32;61.11
61000;SHT31;46879;45.658;11.814;2023-10-08T11:40:01;23.30;61.11
61000;SHT31;46879;45.658;11.814;2023-10-08T11:45:11;23.33;61.04
61000;SHT31;46879;45.658;11.814;2023-10-08T11:50:27;23.33;61.05
61000;SHT31;46879;45.658;11.814;2023-10-08T11:55:33;23.30;61.11
61000;SHT31;46879;45.658;11.814;2023-10-08T12:00:42;23.33;61.07
61000;SHT31;46879;45.658;11.814;2023-10-08T12:05:46;23.33;61.03
61000;SHT31;46879;45.658;11.814;2023-10-08T12:10:49;23.35;61.03
61000;SHT31;46879;45.658;11.814;2023-10-08T12:15:54;23.33;61.04
61000;SHT31;46879;45.658;11.814;2023-10-08T12:21:12;23.33;60.95
61000;SHT31;46879;45.658;11.814;2023-10-08T12:26:15;23.32;60.99
61000;SHT31;46879;45.658;11.814;2023-10-08T12:31:17;23.36;60.97
61000;SHT31;46879;45.658;11.814;2023-10-08T12:36:26;23.36;60.96
61000;SHT31;46879;45.658;11.814;2023-10-08T12:41:33;23.35;60.99
61000;SHT31;46879;45.658;11.814;2023-10-08T12:46:33;23.35;60.98
61000;SHT31;46879;45.658;11.814;2023-10-08T12:51:34;23.33;60.94
61000;SHT31;46879;45.658;11.814;2023-10-08T12:56:36;23.38;60.92
61000;SHT31;46879;45.658;11.814;2023-10-08T13:01:45;23.35;61.00
61000;SHT31;46879;45.658;11.814;2023-10-08T13:06:45;23.33;60.92
61000;SHT31;46879;45.658;11.814;2023-10-08T13:11:46;23.35;60.87
61000;SHT31;46879;45.658;11.814;2023-10-08T13:16:46;23.36;60.93
61000;SHT31;46879;45.658;11.814;2023-10-08T13:21:49;23.35;60.89
61000;SHT31;46879;45.658;11.814;2023-10-08T13:26:52;23.36;60.87
61000;SHT31;46879;45.658;11.814;2023-10-08T13:31:53;23.36;60.84
61000;SHT31;46879;45.658;11.814;2023-10-08T13:36:55;23.36;60.84
61000;SHT31;46879;45.658;11.814;2023-10-08T13:41:56;23.38;60.84
61000;SHT31;46879;45.658;11.814;2023-10-08T13:47:01;23.39;60.86
61000;SHT31;46879;45.658;11.814;2023-10-08T13:52:05;23.38;60.83
61000;SHT31;46879;45.658;11.814;2023-10-08T13:57:08;23.38;60.85
61000;SHT31;46879;45.658;11.814;2023-10-08T14:02:09;23.39;60.85
61000;SHT31;46879;45.658;11.814;2023-10-08T14:07:14;23.39;60.81
61000;SHT31;46879;45.658;11.814;2023-10-08T14:12:17;23.39;60.85
61000;SHT31;46879;45.658;11.814;2023-10-08T14:17:18;23.39;60.83
61000;SHT31;46879;45.658;11.814;2023-10-08T14:22:39;23.41;60.86
61000;SHT31;46879;45.658;11.814;2023-10-08T14:27:44;23.41;60.87
61000;SHT31;46879;45.658;11.814;2023-10-08T14:32:52;23.39;60.86
61000;SHT31;46879;45.658;11.814;2023-10-08T14:37:52;23.42;60.82
61000;SHT31;46879;45.658;11.814;2023-10-08T14:43:12;23.41;60.84
61000;SHT31;46879;45.658;11.814;2023-10-08T14:48:16;23.42;60.87
61000;SHT31;46879;45.658;11.814;2023-10-08T14:53:17;23.43;60.78
61000;SHT31;46879;45.658;11.814;2023-10-08T14:58:18;23.42;60.83
61000;SHT31;46879;45.658;11.814;2023-10-08T15:03:18;23.42;60.78
61000;SHT31;46879;45.658;11.814;2023-10-08T15:08:21;23.41;60.82
61000;SHT31;46879;45.658;11.814;2023-10-08T15:13:22;23.41;60.83
61000;SHT31;46879;45.658;11.814;2023-10-08T15:18:25;23.39;60.92
61000;SHT31;46879;45.658;11.814;2023-10-08T15:23:32;23.42;60.91
61000;SHT31;46879;45.658;11.814;2023-10-08T15:28:32;23.42;61.10
61000;SHT31;46879;45.658;11.814;2023-10-08T15:33:33;23.42;61.02
61000;SHT31;46879;45.658;11.814;2023-10-08T15:38:34;23.43;61.25
61000;SHT31;46879;45.658;11.814;2023-10-08T15:43:34;23.41;61.30
61000;SHT31;46879;45.658;11.814;2023-10-08T15:48:35;23.41;61.41
61000;SHT31;46879;45.658;11.814;2023-10-08T15:53:37;23.43;61.42
61000;SHT31;46879;45.658;11.814;2023-10-08T15:58:39;23.45;61.53
61000;SHT31;46879;45.658;11.814;2023-10-08T16:03:41;23.43;61.55
61000;SHT31;46879;45.658;11.814;2023-10-08T16:08:42;23.42;61.50
61000;SHT31;46879;45.658;11.814;2023-10-08T16:13:42;23.43;61.51
61000;SHT31;46879;45.658;11.814;2023-10-08T16:18:43;23.41;61.63
61000;SHT31;46879;45.658;11.814;2023-10-08T16:23:44;23.45;61.59
61000;SHT31;46879;45.658;11.814;2023-10-08T16:28:44;23.47;61.72
61000;SHT31;46879;45.658;11.814;2023-10-08T16:33:45;23.52;61.80
61000;SHT31;46879;45.658;11.814;2023-10-08T16:38:45;23.55;61.60
61000;SHT31;46879;45.658;11.814;2023-10-08T16:43:46;23.57;61.85
61000;SHT31;46879;45.658;11.814;2023-10-08T16:48:47;23.60;61.87
61000;SHT31;46879;45.658;11.814;2023-10-08T16:53:47;23.63;61.51
61000;SHT31;46879;45.658;11.814;2023-10-08T16:58:48;23.64;61.85
61000;SHT31;46879;45.658;11.814;2023-10-08T17:03:49;23.60;62.27
61000;SHT31;46879;45.658;11.814;2023-10-08T17:08:49;23.59;62.62
61000;SHT31;46879;45.658;11.814;2023-10-08T17:13:50;23.56;62.80
61000;SHT31;46879;45.658;11.814;2023-10-08T17:18:51;23.57;63.56
61000;SHT31;46879;45.658;11.814;2023-10-08T17:23:51;23.55;64.00
61000;SHT31;46879;45.658;11.814;2023-10-08T17:28:52;23.55;63.65
61000;SHT31;46879;45.658;11.814;2023-10-08T17:33:52;23.53;63.48
61000;SHT31;46879;45.658;11.814;2023-10-08T17:38:53;23.53;63.97
61000;SHT31;46879;45.658;11.814;2023-10-08T17:43:54;23.50;63.94
61000;SHT31;46879;45.658;11.814;2023-10-08T17:48:54;23.53;63.95
61000;SHT31;46879;45.658;11.814;2023-10-08T17:53:55;23.50;63.92
61000;SHT31;46879;45.658;11.814;2023-10-08T17:58:55;23.49;63.66
61000;SHT31;46879;45.658;11.814;2023-10-08T18:03:56;23.49;63.72
61000;SHT31;46879;45.658;11.814;2023-10-08T18:08:57;23.50;63.76
61000;SHT31;46879;45.658;11.814;2023-10-08T18:13:57;23.49;63.62
61000;SHT31;46879;45.658;11.814;2023-10-08T18:18:58;23.49;63.60
61000;SHT31;46879;45.658;11.814;2023-10-08T18:23:59;23.50;63.69
61000;SHT31;46879;45.658;11.814;2023-10-08T18:29:00;23.47;63.68
61000;SHT31;46879;45.658;11.814;2023-10-08T18:34:02;23.49;63.61
61000;SHT31;46879;45.658;11.814;2023-10-08T18:39:04;23.47;63.56
61000;SHT31;46879;45.658;11.814;2023-10-08T18:44:16;23.47;63.55
61000;SHT31;46879;45.658;11.814;2023-10-08T18:49:16;23.47;63.58
61000;SHT31;46879;45.658;11.814;2023-10-08T18:54:17;23.46;63.57
61000;SHT31;46879;45.658;11.814;2023-10-08T18:59:18;23.47;63.51
61000;SHT31;46879;45.658;11.814;2023-10-08T19:04:20;23.46;63.61
61000;SHT31;46879;45.658;11.814;2023-10-08T19:09:20;23.47;63.45
61000;SHT31;46879;45.658;11.814;2023-10-08T19:14:24;23.43;63.43
61000;SHT31;46879;45.658;11.814;2023-10-08T19:19:24;23.45;63.49
61000;SHT31;46879;45.658;11.814;2023-10-08T19:24:25;23.47;63.46
61000;SHT31;46879;45.658;11.814;2023-10-08T19:29:26;23.45;63.43
61000;SHT31;46879;45.658;11.814;2023-10-08T19:34:29;23.43;63.44
61000;SHT31;46879;45.658;11.814;2023-10-08T19:39:30;23.45;63.33
61000;SHT31;46879;45.658;11.814;2023-10-08T19:44:30;23.43;63.37
61000;SHT31;46879;45.658;11.814;2023-10-08T19:49:32;23.43;63.34
61000;SHT31;46879;45.658;11.814;2023-10-08T19:54:33;23.42;63.44
61000;SHT31;46879;45.658;11.814;2023-10-08T19:59:35;23.43;63.22
61000;SHT31;46879;45.658;11.814;2023-10-08T20:04:36;23.43;63.23
61000;SHT31;46879;45.658;11.814;2023-10-08T20:09:36;23.41;63.38
61000;SHT31;46879;45.658;11.814;2023-10-08T20:14:37;23.43;63.49
61000;SHT31;46879;45.658;11.814;2023-10-08T20:19:38;23.41;63.48
61000;SHT31;46879;45.658;11.814;2023-10-08T20:24:38;23.41;63.58
61000;SHT31;46879;45.658;11.814;2023-10-08T20:29:39;23.41;63.50
61000;SHT31;46879;45.658;11.814;2023-10-08T20:34:40;23.39;63.65
61000;SHT31;46879;45.658;11.814;2023-10-08T20:39:40;23.41;63.69
61000;SHT31;46879;45.658;11.814;2023-10-08T20:44:43;23.39;63.60
61000;SHT31;46879;45.658;11.814;2023-10-08T20:49:43;23.39;63.52
61000;SHT31;46879;45.658;11.814;2023-10-08T20:54:44;23.38;63.59
61000;SHT31;46879;45.658;11.814;2023-10-08T20:59:47;23.39;63.59
61000;SHT31;46879;45.658;11.814;2023-10-08T21:04:49;23.39;63.60
61000;SHT31;46879;45.658;11.814;2023-10-08T21:09:50;23.41;63.71
61000;SHT31;46879;45.658;11.814;2023-10-08T21:14:50;23.39;63.70
61000;SHT31;46879;45.658;11.814;2023-10-08T21:19:52;23.43;63.76
61000;SHT31;46879;45.658;11.814;2023-10-08T21:24:52;23.42;63.70
61000;SHT31;46879;45.658;11.814;2023-10-08T21:29:53;23.42;63.68
61000;SHT31;46879;45.658;11.814;2023-10-08T21:34:53;23.41;63.75
61000;SHT31;46879;45.658;11.814;2023-10-08T21:39:56;23.45;64.37
61000;SHT31;46879;45.658;11.814;2023-10-08T21:44:57;23.43;65.21
61000;SHT31;46879;45.658;11.814;2023-10-08T21:49:59;23.41;65.21
61000;SHT31;46879;45.658;11.814;2023-10-08T21:55:00;23.42;65.05
61000;SHT31;46879;45.658;11.814;2023-10-08T22:00:01;23.45;65.90
61000;SHT31;46879;45.658;11.814;2023-10-08T22:05:02;23.46;65.48
61000;SHT31;46879;45.658;11.814;2023-10-08T22:10:04;23.45;66.39
61000;SHT31;46879;45.658;11.814;2023-10-08T22:15:09;23.42;66.23
61000;SHT31;46879;45.658;11.814;2023-10-08T22:20:27;23.43;65.59
61000;SHT31;46879;45.658;11.814;2023-10-08T22:25:36;23.45;66.13
61000;SHT31;46879;45.658;11.814;2023-10-08T22:30:51;23.43;65.76
61000;SHT31;46879;45.658;11.814;2023-10-08T22:35:54;23.45;65.99
61000;SHT31;46879;45.658;11.814;2023-10-08T22:40:55;23.45;65.69
61000;SHT31;46879;45.658;11.814;2023-10-08T22:45:56;23.45;65.74
61000;SHT31;46879;45.658;11.814;2023-10-08T22:51:02;23.45;65.60
61000;SHT31;46879;45.658;11.814;2023-10-08T22:56:04;23.46;65.61
61000;SHT31;46879;45.658;11.814;2023-10-08T23:01:18;23.45;65.54
61000;SHT31;46879;45.658;11.814;2023-10-08T23:06:20;23.46;65.45
61000;SHT31;46879;45.658;11.814;2023-10-08T23:11:21;23.46;65.38
61000;SHT31;46879;45.658;11.814;2023-10-08T23:16:22;23.45;65.26
61000;SHT31;46879;45.658;11.814;2023-10-08T23:21:23;23.45;65.46
61000;SHT31;46879;45.658;11.814;2023-10-08T23:26:25;23.42;65.16
61000;SHT31;46879;45.658;11.814;2023-10-08T23:31:26;23.45;65.25
61000;SHT31;46879;45.658;11.814;2023-10-08T23:36:28;23.45;65.15
61000;SHT31;46879;45.658;11.814;2023-10-08T23:41:49;23.43;65.03
61000;SHT31;46879;45.658;11.814;2023-10-08T23:46:52;23.43;65.29
61000;SHT31;46879;45.658;11.814;2023-10-08T23:52:03;23.42;65.27
61000;SHT31;46879;45.658;11.814;2023-10-08T23:57:10;23.41;65.16
